createdAt,value
2022-09-04T00:00:42.386Z,9.20
2022-09-04T00:01:45.178Z,8.80
2022-09-04T00:02:42.343Z,8.80
2022-09-04T00:03:42.472Z,8.60
2022-09-04T00:04:42.485Z,8.90
2022-09-04T00:05:42.344Z,8.90
2022-09-04T00:06:42.345Z,8.90
2022-09-04T00:07:42.344Z,8.90
2022-09-04T00:08:42.346Z,9.10
2022-09-04T00:09:42.349Z,9.10
2022-09-04T00:10:42.347Z,8.90
2022-09-04T00:11:42.354Z,9.00
2022-09-04T00:12:42.352Z,9.10
2022-09-04T00:13:42.355Z,9.20
2022-09-04T00:14:42.351Z,9.10
2022-09-04T00:15:42.356Z,9.00
2022-09-04T00:16:42.453Z,9.00
2022-09-04T00:17:42.356Z,9.30
2022-09-04T00:18:42.355Z,9.30
2022-09-04T00:19:42.360Z,9.40
2022-09-04T00:20:42.357Z,9.40
2022-09-04T00:21:42.360Z,9.30
2022-09-04T00:22:42.361Z,9.20
2022-09-04T00:23:42.362Z,9.10
2022-09-04T00:24:42.362Z,9.30
2022-09-04T00:25:42.365Z,9.20
2022-09-04T00:26:42.363Z,9.00
2022-09-04T00:27:42.365Z,9.10
2022-09-04T00:28:42.367Z,9.10
2022-09-04T00:29:42.365Z,9.20
2022-09-04T00:30:42.437Z,9.40
2022-09-04T00:31:42.374Z,9.30
2022-09-04T00:32:42.368Z,9.10
2022-09-04T00:33:42.373Z,8.80
2022-09-04T00:34:42.370Z,8.90
2022-09-04T00:35:42.374Z,8.90
2022-09-04T00:36:44.833Z,9.00
2022-09-04T00:37:42.374Z,9.10
2022-09-04T00:38:42.381Z,9.00
2022-09-04T00:39:42.447Z,8.90
2022-09-04T00:40:42.379Z,8.70
2022-09-04T00:41:42.373Z,8.50
2022-09-04T00:42:42.380Z,8.80
2022-09-04T00:43:42.381Z,8.60
2022-09-04T00:44:42.379Z,8.60
2022-09-04T00:45:42.449Z,8.40
2022-09-04T00:46:42.380Z,8.60
2022-09-04T00:47:42.383Z,8.40
2022-09-04T00:48:42.381Z,8.60
2022-09-04T00:49:42.386Z,8.40
2022-09-04T00:50:42.394Z,8.60
2022-09-04T00:51:42.387Z,8.50
2022-09-04T00:52:42.386Z,8.60
2022-09-04T00:53:42.390Z,8.50
2022-09-04T00:54:42.388Z,8.30
2022-09-04T00:55:42.389Z,8.60
2022-09-04T00:56:42.390Z,8.70
2022-09-04T00:57:42.400Z,8.40
2022-09-04T00:58:42.395Z,8.70
2022-09-04T00:59:42.396Z,8.60
2022-09-04T01:00:42.477Z,8.50
2022-09-04T01:01:42.535Z,8.70
2022-09-04T01:02:42.397Z,8.60
2022-09-04T01:03:42.406Z,8.70
2022-09-04T01:04:42.403Z,8.50
2022-09-04T01:05:42.400Z,8.30
2022-09-04T01:06:42.399Z,8.40
2022-09-04T01:07:42.398Z,8.60
2022-09-04T01:08:42.397Z,8.80
2022-09-04T01:09:42.405Z,8.70
2022-09-04T01:10:42.409Z,8.70
2022-09-04T01:11:42.403Z,8.60
2022-09-04T01:12:42.402Z,8.70
2022-09-04T01:13:42.404Z,8.70
2022-09-04T01:14:42.404Z,8.80
2022-09-04T01:15:42.408Z,9.00
2022-09-04T01:16:42.478Z,8.70
2022-09-04T01:17:42.737Z,8.60
2022-09-04T01:18:42.410Z,8.80
2022-09-04T01:19:42.407Z,9.00
2022-09-04T01:20:42.412Z,9.00
2022-09-04T01:21:42.413Z,9.10
2022-09-04T01:22:42.412Z,9.20
2022-09-04T01:23:42.414Z,8.90
2022-09-04T01:24:42.413Z,8.90
2022-09-04T01:25:42.416Z,8.80
2022-09-04T01:26:42.416Z,8.80
2022-09-04T01:27:42.421Z,8.90
2022-09-04T01:28:42.420Z,8.90
2022-09-04T01:29:42.418Z,8.70
2022-09-04T01:30:42.418Z,8.60
2022-09-04T01:31:42.491Z,8.80
2022-09-04T01:32:42.419Z,8.90
2022-09-04T01:33:42.424Z,8.90
2022-09-04T01:34:42.419Z,8.70
2022-09-04T01:35:42.421Z,8.70
2022-09-04T01:36:42.430Z,8.90
2022-09-04T01:37:42.426Z,9.20
2022-09-04T01:38:42.426Z,9.10
2022-09-04T01:39:42.480Z,9.10
2022-09-04T01:40:42.424Z,9.20
2022-09-04T01:41:42.426Z,9.40
2022-09-04T01:42:42.424Z,9.60
2022-09-04T01:43:42.431Z,9.50
2022-09-04T01:44:42.432Z,9.20
2022-09-04T01:45:42.492Z,9.20
2022-09-04T01:46:42.430Z,9.20
2022-09-04T01:47:42.435Z,8.90
2022-09-04T01:48:42.436Z,8.90
2022-09-04T01:49:42.436Z,8.90
2022-09-04T01:50:42.435Z,8.90
2022-09-04T01:51:42.435Z,9.00
2022-09-04T01:52:42.432Z,9.00
2022-09-04T01:53:42.440Z,9.20
2022-09-04T01:54:42.437Z,9.10
2022-09-04T01:55:42.435Z,8.90
2022-09-04T01:56:42.433Z,8.80
2022-09-04T01:57:42.438Z,8.90
2022-09-04T01:58:42.447Z,8.90
2022-09-04T01:59:42.439Z,9.00
2022-09-04T02:00:42.550Z,8.90
2022-09-04T02:01:42.497Z,8.70
2022-09-04T02:02:42.439Z,8.90
2022-09-04T02:03:42.448Z,9.30
2022-09-04T02:04:42.441Z,8.90
2022-09-04T02:05:42.457Z,9.00
2022-09-04T02:06:42.445Z,9.00
2022-09-04T02:07:42.445Z,9.30
2022-09-04T02:08:42.448Z,8.90
2022-09-04T02:09:42.446Z,9.10
2022-09-04T02:10:42.447Z,9.00
2022-09-04T02:11:42.454Z,9.20
2022-09-04T02:12:42.463Z,9.10
2022-09-04T02:13:42.448Z,9.00
2022-09-04T02:14:42.454Z,9.10
2022-09-04T02:15:42.454Z,8.70
2022-09-04T02:16:42.486Z,8.60
2022-09-04T02:17:42.459Z,8.60
2022-09-04T02:18:42.448Z,8.70
2022-09-04T02:19:42.456Z,8.40
2022-09-04T02:20:42.455Z,8.70
2022-09-04T02:21:42.455Z,8.50
2022-09-04T02:22:42.457Z,8.80
2022-09-04T02:23:42.463Z,8.80
2022-09-04T02:24:42.457Z,9.30
2022-09-04T02:25:42.458Z,9.30
2022-09-04T02:26:42.457Z,9.10
2022-09-04T02:27:42.462Z,8.70
2022-09-04T02:28:42.458Z,9.00
2022-09-04T02:29:42.461Z,8.80
2022-09-04T02:30:42.468Z,9.00
2022-09-04T02:31:42.499Z,9.10
2022-09-04T02:32:42.462Z,9.20
2022-09-04T02:33:42.464Z,9.30
2022-09-04T02:34:42.468Z,9.20
2022-09-04T02:35:42.462Z,9.20
2022-09-04T02:36:42.462Z,9.30
2022-09-04T02:37:42.467Z,9.20
2022-09-04T02:38:42.463Z,8.40
2022-09-04T02:39:42.534Z,9.10
2022-09-04T02:40:42.464Z,9.00
2022-09-04T02:41:42.467Z,8.70
2022-09-04T02:42:42.471Z,8.90
2022-09-04T02:43:42.472Z,8.40
2022-09-04T02:44:42.471Z,8.70
2022-09-04T02:45:42.474Z,8.90
2022-09-04T02:46:43.369Z,8.80
2022-09-04T02:47:42.474Z,8.80
2022-09-04T02:48:42.469Z,9.00
2022-09-04T02:49:42.477Z,8.90
2022-09-04T02:50:42.474Z,8.60
2022-09-04T02:51:42.479Z,8.70
2022-09-04T02:52:42.478Z,8.70
2022-09-04T02:53:42.483Z,8.70
2022-09-04T02:54:42.478Z,8.60
2022-09-04T02:55:42.482Z,8.90
2022-09-04T02:56:42.475Z,8.40
2022-09-04T02:57:42.485Z,8.40
2022-09-04T02:58:42.481Z,8.90
2022-09-04T02:59:42.478Z,8.60
2022-09-04T03:00:42.571Z,8.70
2022-09-04T03:01:45.418Z,8.20
2022-09-04T03:02:42.482Z,8.00
2022-09-04T03:03:42.480Z,8.10
2022-09-04T03:04:42.487Z,8.30
2022-09-04T03:05:42.485Z,8.30
2022-09-04T03:06:42.485Z,8.40
2022-09-04T03:07:42.486Z,8.50
2022-09-04T03:08:42.483Z,8.50
2022-09-04T03:09:42.489Z,8.80
2022-09-04T03:10:42.488Z,8.30
2022-09-04T03:11:42.488Z,8.30
2022-09-04T03:12:42.489Z,8.40
2022-09-04T03:13:42.491Z,9.00
2022-09-04T03:14:42.493Z,8.50
2022-09-04T03:15:42.490Z,8.50
2022-09-04T03:16:42.490Z,8.60
2022-09-04T03:17:42.497Z,8.40
2022-09-04T03:18:42.492Z,8.50
2022-09-04T03:19:42.496Z,8.70
2022-09-04T03:20:42.496Z,8.40
2022-09-04T03:21:42.497Z,9.10
2022-09-04T03:22:42.498Z,8.60
2022-09-04T03:23:42.495Z,8.60
2022-09-04T03:24:42.496Z,8.30
2022-09-04T03:25:42.494Z,8.70
2022-09-04T03:26:42.498Z,8.60
2022-09-04T03:27:42.499Z,8.50
2022-09-04T03:28:42.499Z,8.50
2022-09-04T03:29:42.500Z,8.70
2022-09-04T03:30:42.502Z,8.60
2022-09-04T03:31:42.565Z,8.80
2022-09-04T03:32:42.505Z,8.60
2022-09-04T03:33:42.500Z,8.80
2022-09-04T03:34:42.511Z,9.20
2022-09-04T03:35:42.504Z,8.90
2022-09-04T03:36:42.504Z,8.90
2022-09-04T03:37:42.504Z,8.90
2022-09-04T03:38:42.502Z,8.70
2022-09-04T03:39:42.559Z,8.70
2022-09-04T03:40:42.508Z,8.80
2022-09-04T03:41:42.506Z,8.70
2022-09-04T03:42:42.508Z,8.40
2022-09-04T03:43:42.505Z,8.60
2022-09-04T03:44:42.509Z,8.70
2022-09-04T03:45:42.517Z,8.60
2022-09-04T03:46:42.567Z,8.50
2022-09-04T03:47:42.506Z,8.30
2022-09-04T03:48:42.511Z,8.70
2022-09-04T03:49:42.508Z,8.90
2022-09-04T03:50:42.513Z,8.60
2022-09-04T03:51:42.509Z,8.90
2022-09-04T03:52:42.516Z,8.90
2022-09-04T03:53:42.512Z,8.80
2022-09-04T03:54:42.512Z,8.70
2022-09-04T03:55:42.514Z,8.60
2022-09-04T03:56:42.519Z,8.50
2022-09-04T03:57:42.515Z,9.10
2022-09-04T03:58:42.559Z,9.00
2022-09-04T03:59:42.515Z,8.70
2022-09-04T04:00:42.630Z,8.80
2022-09-04T04:01:42.520Z,8.60
2022-09-04T04:02:42.597Z,8.60
2022-09-04T04:03:42.518Z,8.70
2022-09-04T04:04:42.525Z,8.50
2022-09-04T04:05:42.524Z,8.40
2022-09-04T04:06:42.519Z,8.40
2022-09-04T04:07:42.521Z,8.50
2022-09-04T04:08:42.519Z,8.50
2022-09-04T04:09:42.522Z,8.30
2022-09-04T04:10:42.521Z,7.90
2022-09-04T04:11:43.683Z,8.60
2022-09-04T04:12:42.523Z,8.70
2022-09-04T04:13:42.520Z,8.60
2022-09-04T04:14:42.525Z,8.90
2022-09-04T04:15:42.529Z,8.70
2022-09-04T04:16:42.563Z,8.60
2022-09-04T04:17:42.521Z,8.40
2022-09-04T04:18:42.526Z,8.20
2022-09-04T04:19:42.529Z,8.80
2022-09-04T04:20:42.527Z,8.60
2022-09-04T04:21:42.528Z,8.40
2022-09-04T04:22:42.531Z,8.40
2022-09-04T04:23:42.525Z,8.50
2022-09-04T04:24:42.530Z,8.80
2022-09-04T04:25:42.531Z,9.00
2022-09-04T04:26:42.528Z,8.80
2022-09-04T04:27:42.532Z,9.20
2022-09-04T04:28:42.531Z,9.00
2022-09-04T04:29:42.534Z,9.20
2022-09-04T04:30:42.536Z,9.20
2022-09-04T04:31:42.614Z,9.40
2022-09-04T04:32:42.531Z,9.40
2022-09-04T04:33:42.548Z,9.50
2022-09-04T04:34:42.537Z,9.00
2022-09-04T04:35:42.535Z,9.20
2022-09-04T04:36:42.535Z,9.00
2022-09-04T04:37:42.536Z,9.00
2022-09-04T04:38:42.535Z,9.30
2022-09-04T04:39:42.577Z,9.30
2022-09-04T04:40:42.533Z,9.10
2022-09-04T04:41:42.540Z,9.20
2022-09-04T04:42:42.541Z,9.10
2022-09-04T04:43:42.534Z,8.80
2022-09-04T04:44:42.541Z,8.60
2022-09-04T04:45:42.535Z,8.60
2022-09-04T04:46:42.639Z,8.30
2022-09-04T04:47:42.540Z,8.40
2022-09-04T04:48:42.540Z,8.50
2022-09-04T04:49:42.539Z,8.70
2022-09-04T04:50:42.545Z,8.70
2022-09-04T04:51:42.538Z,8.60
2022-09-04T04:52:42.543Z,8.90
2022-09-04T04:53:42.539Z,8.20
2022-09-04T04:54:42.546Z,8.60
2022-09-04T04:55:42.544Z,8.60
2022-09-04T04:56:42.549Z,8.90
2022-09-04T04:57:42.542Z,8.60
2022-09-04T04:58:42.543Z,8.70
2022-09-04T04:59:42.540Z,8.70
2022-09-04T05:00:42.596Z,9.10
2022-09-04T05:01:42.708Z,9.00
2022-09-04T05:02:42.622Z,8.80
2022-09-04T05:03:42.543Z,9.00
2022-09-04T05:04:42.551Z,8.90
2022-09-04T05:05:42.549Z,8.90
2022-09-04T05:06:42.550Z,9.10
2022-09-04T05:07:42.547Z,9.20
2022-09-04T05:08:42.549Z,9.80
2022-09-04T05:09:42.550Z,9.20
2022-09-04T05:10:42.557Z,9.30
2022-09-04T05:11:42.550Z,9.60
2022-09-04T05:12:42.551Z,9.30
2022-09-04T05:13:42.556Z,9.20
2022-09-04T05:14:42.551Z,8.90
2022-09-04T05:16:05.162Z,9.00
2022-09-04T05:16:42.582Z,9.40
2022-09-04T05:17:42.550Z,9.40
2022-09-04T05:18:42.556Z,9.50
2022-09-04T05:19:42.562Z,9.20
2022-09-04T05:20:42.553Z,9.50
2022-09-04T05:21:42.554Z,9.10
2022-09-04T05:22:42.558Z,9.40
2022-09-04T05:23:42.551Z,9.20
2022-09-04T05:24:42.561Z,9.40
2022-09-04T05:25:42.555Z,8.90
2022-09-04T05:26:42.558Z,9.40
2022-09-04T05:27:42.559Z,8.80
2022-09-04T05:28:42.556Z,9.10
2022-09-04T05:29:42.558Z,8.60
2022-09-04T05:30:42.560Z,8.40
2022-09-04T05:31:42.619Z,8.90
2022-09-04T05:32:42.564Z,9.10
2022-09-04T05:33:42.561Z,9.10
2022-09-04T05:34:42.559Z,9.20
2022-09-04T05:35:42.558Z,9.00
2022-09-04T05:36:42.769Z,9.00
2022-09-04T05:37:42.559Z,8.80
2022-09-04T05:38:42.566Z,8.80
2022-09-04T05:39:42.610Z,9.00
2022-09-04T05:40:42.563Z,9.10
2022-09-04T05:41:42.573Z,9.00
2022-09-04T05:42:42.566Z,9.00
2022-09-04T05:43:42.565Z,8.50
2022-09-04T05:44:42.565Z,8.60
2022-09-04T05:45:42.565Z,8.90
2022-09-04T05:46:42.667Z,8.80
2022-09-04T05:47:42.562Z,9.20
2022-09-04T05:48:42.564Z,8.70
2022-09-04T05:49:42.565Z,8.50
2022-09-04T05:50:42.568Z,9.10
2022-09-04T05:51:42.564Z,9.00
2022-09-04T05:52:42.565Z,8.80
2022-09-04T05:53:42.571Z,8.60
2022-09-04T05:54:42.572Z,8.60
2022-09-04T05:55:42.571Z,8.50
2022-09-04T05:56:42.564Z,8.30
2022-09-04T05:57:42.572Z,7.90
2022-09-04T05:58:42.570Z,8.10
2022-09-04T05:59:44.296Z,8.10
2022-09-04T06:00:42.621Z,8.10
2022-09-04T06:01:42.607Z,8.60
2022-09-04T06:02:42.609Z,8.60
2022-09-04T06:03:42.575Z,7.80
2022-09-04T06:04:42.575Z,8.30
2022-09-04T06:05:42.577Z,8.10
2022-09-04T06:06:42.576Z,8.10
2022-09-04T06:07:42.572Z,8.50
2022-09-04T06:08:42.576Z,8.60
2022-09-04T06:09:42.577Z,8.80
2022-09-04T06:10:42.576Z,8.60
2022-09-04T06:11:42.575Z,8.50
2022-09-04T06:12:42.575Z,8.40
2022-09-04T06:13:42.576Z,8.30
2022-09-04T06:14:42.582Z,7.80
2022-09-04T06:15:42.670Z,8.50
2022-09-04T06:16:42.577Z,8.40
2022-09-04T06:17:42.575Z,8.50
2022-09-04T06:18:42.584Z,8.40
2022-09-04T06:19:42.579Z,8.60
2022-09-04T06:20:42.580Z,8.20
2022-09-04T06:21:42.582Z,8.50
2022-09-04T06:22:42.580Z,8.70
2022-09-04T06:23:42.578Z,8.40
2022-09-04T06:24:42.586Z,9.00
2022-09-04T06:25:42.589Z,8.40
2022-09-04T06:26:42.582Z,8.60
2022-09-04T06:27:42.585Z,8.60
2022-09-04T06:28:42.585Z,8.80
2022-09-04T06:29:42.587Z,8.90
2022-09-04T06:30:42.588Z,8.70
2022-09-04T06:31:42.666Z,8.80
2022-09-04T06:32:42.587Z,8.70
2022-09-04T06:33:42.588Z,8.80
2022-09-04T06:34:42.597Z,8.90
2022-09-04T06:35:42.631Z,9.00
2022-09-04T06:36:42.595Z,8.80
2022-09-04T06:37:42.591Z,8.90
2022-09-04T06:38:42.595Z,8.80
2022-09-04T06:39:42.674Z,9.00
2022-09-04T06:40:42.594Z,8.70
2022-09-04T06:41:42.598Z,8.70
2022-09-04T06:42:42.591Z,8.70
2022-09-04T06:43:42.600Z,8.80
2022-09-04T06:44:42.595Z,8.80
2022-09-04T06:45:42.593Z,8.80
2022-09-04T06:46:42.696Z,8.70
2022-09-04T06:47:42.601Z,8.70
2022-09-04T06:48:42.605Z,8.60
2022-09-04T06:49:42.600Z,8.60
2022-09-04T06:50:42.606Z,8.30
2022-09-04T06:51:42.603Z,8.50
2022-09-04T06:52:42.604Z,8.60
2022-09-04T06:53:42.627Z,8.90
2022-09-04T06:54:42.607Z,8.70
2022-09-04T06:55:42.620Z,9.00
2022-09-04T06:56:42.608Z,9.10
2022-09-04T06:57:42.608Z,9.10
2022-09-04T06:58:42.614Z,9.40
2022-09-04T06:59:42.614Z,9.10
2022-09-04T07:00:42.661Z,8.70
2022-09-04T07:01:42.728Z,9.10
2022-09-04T07:02:42.758Z,8.80
2022-09-04T07:03:42.615Z,8.90
2022-09-04T07:04:42.623Z,8.80
2022-09-04T07:05:42.617Z,8.70
2022-09-04T07:06:42.615Z,8.30
2022-09-04T07:07:42.620Z,8.70
2022-09-04T07:08:42.620Z,8.30
2022-09-04T07:09:42.619Z,8.60
2022-09-04T07:10:42.626Z,7.90
2022-09-04T07:11:42.621Z,8.10
2022-09-04T07:12:42.625Z,8.40
2022-09-04T07:13:42.633Z,8.70
2022-09-04T07:14:42.629Z,8.40
2022-09-04T07:15:42.685Z,8.60
2022-09-04T07:16:42.638Z,8.70
2022-09-04T07:17:42.635Z,9.70
2022-09-04T07:18:42.635Z,8.50
2022-09-04T07:19:42.639Z,8.40
2022-09-04T07:20:42.642Z,8.60
2022-09-04T07:21:42.643Z,8.70
2022-09-04T07:22:42.644Z,8.70
2022-09-04T07:23:42.640Z,8.10
2022-09-04T07:24:42.647Z,8.10
2022-09-04T07:25:42.649Z,8.10
2022-09-04T07:26:42.650Z,8.40
2022-09-04T07:27:42.657Z,8.50
2022-09-04T07:28:42.653Z,8.40
2022-09-04T07:29:42.659Z,8.60
2022-09-04T07:30:42.662Z,8.40
2022-09-04T07:31:42.697Z,8.60
2022-09-04T07:32:42.662Z,8.80
2022-09-04T07:33:42.668Z,8.50
2022-09-04T07:34:42.668Z,8.50
2022-09-04T07:35:42.676Z,8.20
2022-09-04T07:36:42.677Z,8.20
2022-09-04T07:37:42.677Z,8.30
2022-09-04T07:38:42.684Z,8.30
2022-09-04T07:39:42.745Z,8.80
2022-09-04T07:40:42.684Z,8.40
2022-09-04T07:41:42.685Z,8.20
2022-09-04T07:42:42.696Z,8.00
2022-09-04T07:43:42.691Z,7.30
2022-09-04T07:44:42.699Z,8.30
2022-09-04T07:45:42.703Z,8.30
2022-09-04T07:46:42.792Z,8.00
2022-09-04T07:47:42.707Z,8.10
2022-09-04T07:48:42.712Z,8.10
2022-09-04T07:49:42.714Z,10.00
2022-09-04T07:50:42.726Z,8.40
2022-09-04T07:51:42.726Z,8.30
2022-09-04T07:52:42.733Z,8.40
2022-09-04T07:53:42.734Z,8.20
2022-09-04T07:54:42.738Z,8.40
2022-09-04T07:55:42.744Z,8.30
2022-09-04T07:56:42.747Z,8.40
2022-09-04T07:57:42.758Z,8.60
2022-09-04T07:58:42.754Z,8.40
2022-09-04T07:59:42.770Z,8.80
2022-09-04T08:00:42.766Z,8.30
2022-09-04T08:01:42.918Z,8.20
2022-09-04T08:02:42.776Z,8.50
2022-09-04T08:03:54.683Z,8.20
2022-09-04T08:04:42.861Z,8.40
2022-09-04T08:05:42.792Z,7.90
2022-09-04T08:06:42.799Z,7.60
2022-09-04T08:07:42.801Z,7.70
2022-09-04T08:08:42.808Z,7.80
2022-09-04T08:09:42.816Z,8.20
2022-09-04T08:10:42.818Z,7.80
2022-09-04T08:11:42.826Z,7.40
2022-09-04T08:12:42.832Z,7.70
2022-09-04T08:13:42.830Z,7.80
2022-09-04T08:14:42.838Z,7.80
2022-09-04T08:15:43.131Z,7.20
2022-09-04T08:16:42.849Z,7.30
2022-09-04T08:17:42.851Z,7.60
2022-09-04T08:18:42.861Z,7.60
2022-09-04T08:19:42.865Z,7.70
2022-09-04T08:20:42.872Z,8.30
2022-09-04T08:21:42.877Z,8.10
2022-09-04T08:22:42.880Z,7.90
2022-09-04T08:23:42.889Z,8.30
2022-09-04T08:24:42.896Z,8.50
2022-09-04T08:25:42.899Z,8.50
2022-09-04T08:26:42.906Z,8.50
2022-09-04T08:27:44.590Z,8.40
2022-09-04T08:28:46.031Z,7.90
2022-09-04T08:29:42.922Z,8.10
2022-09-04T08:30:42.962Z,8.00
2022-09-04T08:31:42.934Z,7.90
2022-09-04T08:32:42.948Z,7.90
2022-09-04T08:33:42.951Z,8.00
2022-09-04T08:34:42.951Z,7.80
2022-09-04T08:35:42.963Z,8.10
2022-09-04T08:36:42.969Z,7.90
2022-09-04T08:37:42.975Z,8.00
2022-09-04T08:38:42.983Z,8.10
2022-09-04T08:39:43.096Z,8.80
2022-09-04T08:40:42.996Z,8.50
2022-09-04T08:41:43.000Z,8.10
2022-09-04T08:42:43.010Z,8.20
2022-09-04T08:43:43.014Z,7.70
2022-09-04T08:44:43.025Z,8.10
2022-09-04T08:45:43.027Z,8.00
2022-09-04T08:46:43.090Z,7.60
2022-09-04T08:47:43.041Z,7.80
2022-09-04T08:48:43.055Z,7.90
2022-09-04T08:49:43.058Z,7.80
2022-09-04T08:50:43.072Z,7.70
2022-09-04T08:51:43.076Z,8.00
2022-09-04T08:52:43.080Z,7.50
2022-09-04T08:53:43.091Z,7.40
2022-09-04T08:54:43.105Z,7.70
2022-09-04T08:55:43.111Z,7.50
2022-09-04T08:56:43.121Z,7.70
2022-09-04T08:57:43.123Z,7.60
2022-09-04T08:58:47.714Z,7.70
2022-09-04T08:59:43.147Z,8.10
2022-09-04T09:00:43.159Z,8.00
2022-09-04T09:01:43.190Z,8.10
2022-09-04T09:02:43.197Z,8.00
2022-09-04T09:03:43.199Z,8.10
2022-09-04T09:04:43.204Z,8.30
2022-09-04T09:05:43.219Z,8.50
2022-09-04T09:06:43.221Z,8.50
2022-09-04T09:07:43.233Z,8.50
2022-09-04T09:08:43.259Z,8.30
2022-09-04T09:09:43.261Z,8.40
2022-09-04T09:10:43.269Z,8.20
2022-09-04T09:11:43.285Z,8.30
2022-09-04T09:12:43.296Z,8.60
2022-09-04T09:13:43.315Z,8.50
2022-09-04T09:14:43.324Z,8.60
2022-09-04T09:15:43.335Z,8.40
2022-09-04T09:16:43.447Z,8.10
2022-09-04T09:17:43.367Z,8.00
2022-09-04T09:18:43.377Z,8.10
2022-09-04T09:19:43.396Z,8.50
2022-09-04T09:20:43.408Z,8.40
2022-09-04T09:21:43.423Z,8.20
2022-09-04T09:22:43.439Z,8.00
2022-09-04T09:23:43.457Z,8.20
2022-09-04T09:24:43.462Z,8.00
2022-09-04T09:25:44.121Z,8.20
2022-09-04T09:26:43.499Z,7.90
2022-09-04T09:27:43.516Z,7.60
2022-09-04T09:28:43.527Z,8.10
2022-09-04T09:29:43.547Z,8.00
2022-09-04T09:30:43.630Z,7.90
2022-09-04T09:31:43.579Z,8.10
2022-09-04T09:32:43.593Z,8.30
2022-09-04T09:33:43.614Z,8.30
2022-09-04T09:34:43.629Z,8.00
2022-09-04T09:35:43.646Z,7.90
2022-09-04T09:36:43.657Z,8.00
2022-09-04T09:37:43.679Z,8.00
2022-09-04T09:38:43.694Z,7.90
2022-09-04T09:39:43.818Z,7.80
2022-09-04T09:40:43.730Z,7.80
2022-09-04T09:41:43.753Z,7.80
2022-09-04T09:42:43.764Z,8.10
2022-09-04T09:43:43.784Z,8.00
2022-09-04T09:44:43.795Z,7.80
2022-09-04T09:45:43.849Z,7.90
2022-09-04T09:46:43.830Z,8.00
2022-09-04T09:47:43.844Z,8.40
2022-09-04T09:48:43.863Z,8.20
2022-09-04T09:49:43.884Z,8.30
2022-09-04T09:50:43.893Z,8.00
2022-09-04T09:51:43.906Z,7.90
2022-09-04T09:52:43.922Z,8.00
2022-09-04T09:53:47.184Z,8.10
2022-09-04T09:54:43.952Z,8.10
2022-09-04T09:55:43.971Z,8.00
2022-09-04T09:56:46.657Z,7.10
2022-09-04T09:57:43.999Z,7.00
2022-09-04T09:58:44.057Z,7.80
2022-09-04T09:59:44.033Z,8.10
2022-09-04T10:00:44.041Z,7.90
2022-09-04T10:01:44.130Z,8.00
2022-09-04T10:02:44.139Z,8.20
2022-09-04T10:03:44.078Z,8.10
2022-09-04T10:04:44.088Z,8.00
2022-09-04T10:05:44.103Z,8.00
2022-09-04T10:06:44.124Z,8.10
2022-09-04T10:07:44.136Z,8.20
2022-09-04T10:08:44.143Z,8.20
2022-09-04T10:09:44.158Z,8.00
2022-09-04T10:10:44.156Z,7.80
2022-09-04T10:11:44.176Z,7.90
2022-09-04T10:12:44.181Z,8.10
2022-09-04T10:13:44.206Z,8.60
2022-09-04T10:14:44.215Z,8.70
2022-09-04T10:15:44.224Z,8.90
2022-09-04T10:16:44.383Z,8.60
2022-09-04T10:17:44.246Z,8.40
2022-09-04T10:18:44.252Z,8.40
2022-09-04T10:19:44.266Z,8.80
2022-09-04T10:20:44.275Z,8.40
2022-09-04T10:21:44.283Z,8.20
2022-09-04T10:22:44.298Z,8.30
2022-09-04T10:23:44.315Z,7.90
2022-09-04T10:24:44.319Z,8.50
2022-09-04T10:25:44.332Z,8.20
2022-09-04T10:26:44.337Z,8.40
2022-09-04T10:27:44.350Z,7.80
2022-09-04T10:28:44.383Z,7.60
2022-09-04T10:29:44.370Z,7.60
2022-09-04T10:30:44.450Z,7.80
2022-09-04T10:31:44.390Z,7.80
2022-09-04T10:32:44.421Z,8.00
2022-09-04T10:33:44.457Z,7.70
2022-09-04T10:34:44.443Z,7.80
2022-09-04T10:35:44.430Z,7.80
2022-09-04T10:36:44.507Z,8.30
2022-09-04T10:37:44.463Z,8.00
2022-09-04T10:38:44.459Z,7.80
2022-09-04T10:39:44.588Z,7.20
2022-09-04T10:40:47.065Z,7.80
2022-09-04T10:41:44.480Z,7.60
2022-09-04T10:42:44.491Z,6.90
2022-09-04T10:43:44.497Z,6.70
2022-09-04T10:44:44.507Z,6.60
2022-09-04T10:45:44.647Z,7.00
2022-09-04T10:46:44.527Z,8.20
2022-09-04T10:47:44.534Z,8.30
2022-09-04T10:48:44.541Z,7.60
2022-09-04T10:49:44.555Z,7.90
2022-09-04T10:50:44.560Z,7.70
2022-09-04T10:51:44.569Z,8.00
2022-09-04T10:52:44.576Z,8.30
2022-09-04T10:53:44.587Z,8.00
2022-09-04T10:54:44.595Z,8.10
2022-09-04T10:55:44.604Z,8.00
2022-09-04T10:56:44.615Z,8.10
2022-09-04T10:57:44.625Z,8.10
2022-09-04T10:58:44.632Z,8.20
2022-09-04T10:59:44.636Z,7.70
2022-09-04T11:00:44.702Z,7.90
2022-09-04T11:01:44.654Z,8.50
2022-09-04T11:02:44.748Z,8.40
2022-09-04T11:03:44.671Z,7.90
2022-09-04T11:04:44.679Z,8.40
2022-09-04T11:05:44.690Z,8.10
2022-09-04T11:06:44.698Z,7.70
2022-09-04T11:07:44.701Z,8.00
2022-09-04T11:08:44.712Z,8.10
2022-09-04T11:09:44.729Z,8.00
2022-09-04T11:10:44.740Z,8.30
2022-09-04T11:11:44.737Z,8.70
2022-09-04T11:12:44.746Z,8.70
2022-09-04T11:13:49.337Z,8.40
2022-09-04T11:14:44.761Z,8.40
2022-09-04T11:15:44.771Z,8.00
2022-09-04T11:16:44.850Z,8.10
2022-09-04T11:17:44.788Z,7.80
2022-09-04T11:18:44.792Z,8.10
2022-09-04T11:19:44.801Z,7.80
2022-09-04T11:20:44.808Z,7.80
2022-09-04T11:21:44.819Z,7.90
2022-09-04T11:22:44.824Z,7.50
2022-09-04T11:23:44.831Z,7.80
2022-09-04T11:24:44.840Z,8.20
2022-09-04T11:25:44.848Z,8.50
2022-09-04T11:26:44.857Z,8.30
2022-09-04T11:27:44.861Z,8.40
2022-09-04T11:28:44.873Z,8.80
2022-09-04T11:29:44.882Z,8.80
2022-09-04T11:30:48.182Z,8.60
2022-09-04T11:31:44.942Z,8.70
2022-09-04T11:32:44.902Z,8.70
2022-09-04T11:33:44.912Z,8.70
2022-09-04T11:34:44.925Z,8.90
2022-09-04T11:35:44.928Z,9.00
2022-09-04T11:36:44.939Z,8.90
2022-09-04T11:37:44.953Z,8.80
2022-09-04T11:38:44.953Z,8.90
2022-09-04T11:39:45.077Z,9.00
2022-09-04T11:40:44.970Z,9.00
2022-09-04T11:41:44.980Z,9.20
2022-09-04T11:42:44.981Z,9.10
2022-09-04T11:43:44.999Z,8.80
2022-09-04T11:44:44.997Z,8.80
2022-09-04T11:45:45.057Z,9.00
2022-09-04T11:46:45.016Z,8.90
2022-09-04T11:47:45.027Z,8.80
2022-09-04T11:48:45.119Z,9.00
2022-09-04T11:49:45.048Z,8.90
2022-09-04T11:50:45.048Z,8.70
2022-09-04T11:51:45.056Z,8.70
2022-09-04T11:52:45.062Z,8.60
2022-09-04T11:53:45.073Z,8.70
2022-09-04T11:54:45.081Z,8.70
2022-09-04T11:55:48.316Z,8.90
2022-09-04T11:56:45.098Z,8.60
2022-09-04T11:57:45.106Z,8.50
2022-09-04T11:58:45.115Z,8.30
2022-09-04T11:59:45.126Z,8.20
2022-09-04T12:00:45.137Z,8.30
2022-09-04T12:01:47.847Z,8.40
2022-09-04T12:02:45.156Z,7.90
2022-09-04T12:03:45.194Z,7.80
2022-09-04T12:04:45.172Z,7.70
2022-09-04T12:05:45.183Z,8.20
2022-09-04T12:06:45.199Z,8.30
2022-09-04T12:07:45.207Z,8.10
2022-09-04T12:08:45.218Z,8.20
2022-09-04T12:09:45.224Z,8.10
2022-09-04T12:10:45.240Z,8.70
2022-09-04T12:11:45.246Z,8.40
2022-09-04T12:12:45.259Z,8.70
2022-09-04T12:13:45.267Z,8.70
2022-09-04T12:14:45.282Z,8.80
2022-09-04T12:15:45.291Z,9.00
2022-09-04T12:16:45.416Z,9.10
2022-09-04T12:17:45.315Z,9.10
2022-09-04T12:18:45.328Z,8.90
2022-09-04T12:19:45.328Z,8.40
2022-09-04T12:20:45.347Z,8.30
2022-09-04T12:21:45.355Z,8.30
2022-09-04T12:22:45.367Z,8.00
2022-09-04T12:23:45.373Z,7.90
2022-09-04T12:24:45.384Z,8.00
2022-09-04T12:25:45.394Z,8.40
2022-09-04T12:26:51.989Z,8.40
2022-09-04T12:27:45.412Z,8.40
2022-09-04T12:28:45.423Z,8.50
2022-09-04T12:29:45.435Z,8.50
2022-09-04T12:30:45.444Z,8.70
2022-09-04T12:31:45.461Z,8.60
2022-09-04T12:32:45.468Z,8.60
2022-09-04T12:33:45.477Z,8.60
2022-09-04T12:34:45.486Z,8.70
2022-09-04T12:35:45.499Z,8.70
2022-09-04T12:36:45.506Z,8.40
2022-09-04T12:37:45.515Z,9.00
2022-09-04T12:38:45.528Z,8.80
2022-09-04T12:39:45.649Z,8.90
2022-09-04T12:40:45.549Z,8.80
2022-09-04T12:41:49.685Z,8.90
2022-09-04T12:42:45.564Z,8.60
2022-09-04T12:43:45.581Z,8.40
2022-09-04T12:44:45.581Z,8.70
2022-09-04T12:45:45.643Z,8.80
2022-09-04T12:46:45.606Z,8.60
2022-09-04T12:47:45.617Z,8.70
2022-09-04T12:48:45.617Z,8.60
2022-09-04T12:49:45.628Z,8.80
2022-09-04T12:50:45.637Z,8.50
2022-09-04T12:51:45.646Z,8.80
2022-09-04T12:52:45.658Z,8.30
2022-09-04T12:53:50.508Z,8.50
2022-09-04T12:54:45.675Z,8.80
2022-09-04T12:55:45.684Z,8.50
2022-09-04T12:56:49.044Z,8.40
2022-09-04T12:57:45.704Z,8.00
2022-09-04T12:58:45.713Z,6.90
2022-09-04T12:59:45.717Z,8.10
2022-09-04T13:00:48.555Z,9.00
2022-09-04T13:01:45.881Z,8.70
2022-09-04T13:02:45.749Z,8.60
2022-09-04T13:03:45.755Z,8.70
2022-09-04T13:04:45.768Z,8.80
2022-09-04T13:05:52.714Z,8.60
2022-09-04T13:06:48.278Z,8.30
2022-09-04T13:07:45.791Z,8.90
2022-09-04T13:08:45.795Z,9.00
2022-09-04T13:09:53.340Z,8.90
2022-09-04T13:10:45.817Z,8.90
2022-09-04T13:11:45.833Z,8.90
2022-09-04T13:12:45.830Z,8.70
2022-09-04T13:13:45.839Z,9.00
2022-09-04T13:14:45.848Z,8.50
2022-09-04T13:15:45.857Z,8.70
2022-09-04T13:16:45.961Z,8.80
2022-09-04T13:17:45.867Z,8.50
2022-09-04T13:18:45.981Z,8.50